sensor_id;sensor_type;location;lat;lon;timestamp;pressure;altitude;pressure_sealevel;temperature;humidity
21730;BME280;11027;51.030;13.812;2023-04-01T00:00:59;98433.28;;;11.17;74.31
21730;BME280;11027;51.030;13.812;2023-04-01T00:03:26;98436.94;;;11.11;74.58
21730;BME280;11027;51.030;13.812;2023-04-01T00:05:53;98429.78;;;11.10;74.76
21730;BME280;11027;51.030;13.812;2023-04-01T00:08:18;98430.63;;;11.11;74.84
21730;BME280;11027;51.030;13.812;2023-04-01T00:10:43;98428.50;;;11.13;74.94
21730;BME280;11027;51.030;13.812;2023-04-01T00:13:08;98428.97;;;11.10;74.97
21730;BME280;11027;51.030;13.812;2023-04-01T00:15:34;98424.44;;;11.04;75.60
21730;BME280;11027;51.030;13.812;2023-04-01T00:18:00;98421.91;;;11.02;75.70
21730;BME280;11027;51.030;13.812;2023-04-01T00:20:26;98420.63;;;11.05;75.65
21730;BME280;11027;51.030;13.812;2023-04-01T00:22:51;98419.13;;;11.09;75.52
21730;BME280;11027;51.030;13.812;2023-04-01T00:25:17;98414.28;;;11.11;75.45
21730;BME280;11027;51.030;13.812;2023-04-01T00:27:43;98428.75;;;11.11;75.58
21730;BME280;11027;51.030;13.812;2023-04-01T00:30:09;98421.84;;;11.09;75.34
21730;BME280;11027;51.030;13.812;2023-04-01T00:32:34;98429.06;;;11.03;75.63
21730;BME280;11027;51.030;13.812;2023-04-01T00:35:00;98424.88;;;11.00;75.58
21730;BME280;11027;51.030;13.812;2023-04-01T00:37:27;98438.97;;;10.97;75.80
21730;BME280;11027;51.030;13.812;2023-04-01T00:39:52;98425.16;;;10.92;75.88
21730;BME280;11027;51.030;13.812;2023-04-01T00:42:18;98421.53;;;10.98;76.12
21730;BME280;11027;51.030;13.812;2023-04-01T00:44:47;98437.88;;;10.98;75.90
21730;BME280;11027;51.030;13.812;2023-04-01T00:47:13;98432.91;;;10.95;76.01
21730;BME280;11027;51.030;13.812;2023-04-01T00:49:42;98433.72;;;10.96;75.86
21730;BME280;11027;51.030;13.812;2023-04-01T00:52:11;98429.56;;;10.93;76.40
21730;BME280;11027;51.030;13.812;2023-04-01T00:54:38;98443.19;;;10.93;76.35
21730;BME280;11027;51.030;13.812;2023-04-01T00:57:08;98426.22;;;10.91;76.28
21730;BME280;11027;51.030;13.812;2023-04-01T00:59:41;98427.88;;;10.92;76.65
21730;BME280;11027;51.030;13.812;2023-04-01T01:02:10;98430.41;;;10.94;76.84
21730;BME280;11027;51.030;13.812;2023-04-01T01:04:36;98433.81;;;10.89;77.04
21730;BME280;11027;51.030;13.812;2023-04-01T01:07:25;98420.63;;;10.86;77.24
21730;BME280;11027;51.030;13.812;2023-04-01T01:10:03;98427.13;;;10.85;76.76
21730;BME280;11027;51.030;13.812;2023-04-01T01:13:09;98421.69;;;10.85;76.93
21730;BME280;11027;51.030;13.812;2023-04-01T01:18:29;98430.91;;;10.84;77.03
21730;BME280;11027;51.030;13.812;2023-04-01T01:24:26;98412.00;;;10.89;76.41
21730;BME280;11027;51.030;13.812;2023-04-01T01:29:40;98411.41;;;10.87;75.96
21730;BME280;11027;51.030;13.812;2023-04-01T01:37:30;98424.56;;;10.90;75.13
21730;BME280;11027;51.030;13.812;2023-04-01T01:40:03;98443.63;;;10.90;75.00
21730;BME280;11027;51.030;13.812;2023-04-01T01:42:29;98433.19;;;10.87;75.25
21730;BME280;11027;51.030;13.812;2023-04-01T01:44:57;98425.03;;;10.87;75.40
21730;BME280;11027;51.030;13.812;2023-04-01T01:47:25;98425.84;;;10.88;75.41
21730;BME280;11027;51.030;13.812;2023-04-01T01:49:53;98428.78;;;10.86;75.52
21730;BME280;11027;51.030;13.812;2023-04-01T01:52:19;98425.47;;;10.84;75.35
21730;BME280;11027;51.030;13.812;2023-04-01T01:54:54;98427.56;;;10.82;75.68
21730;BME280;11027;51.030;13.812;2023-04-01T01:57:24;98433.03;;;10.82;75.30
21730;BME280;11027;51.030;13.812;2023-04-01T01:59:52;98429.28;;;10.76;75.72
21730;BME280;11027;51.030;13.812;2023-04-01T02:02:19;98422.81;;;10.77;75.76
21730;BME280;11027;51.030;13.812;2023-04-01T02:04:46;98439.84;;;10.73;75.54
21730;BME280;11027;51.030;13.812;2023-04-01T02:07:18;98429.97;;;10.72;75.80
21730;BME280;11027;51.030;13.812;2023-04-01T02:09:45;98425.59;;;10.71;75.89
21730;BME280;11027;51.030;13.812;2023-04-01T02:12:12;98433.91;;;10.76;75.71
21730;BME280;11027;51.030;13.812;2023-04-01T02:14:52;98433.91;;;10.76;75.46
21730;BME280;11027;51.030;13.812;2023-04-01T02:17:23;98423.50;;;10.73;75.72
21730;BME280;11027;51.030;13.812;2023-04-01T02:20:06;98418.88;;;10.73;75.70
21730;BME280;11027;51.030;13.812;2023-04-01T02:22:39;98418.03;;;10.73;75.57
21730;BME280;11027;51.030;13.812;2023-04-01T02:25:20;98418.41;;;10.76;75.38
21730;BME280;11027;51.030;13.812;2023-04-01T02:27:47;98420.09;;;10.77;75.57
21730;BME280;11027;51.030;13.812;2023-04-01T02:30:15;98422.13;;;10.82;75.28
21730;BME280;11027;51.030;13.812;2023-04-01T02:32:41;98422.94;;;10.82;75.09
21730;BME280;11027;51.030;13.812;2023-04-01T02:35:10;98424.25;;;10.80;74.81
21730;BME280;11027;51.030;13.812;2023-04-01T02:37:37;98432.63;;;10.78;75.17
21730;BME280;11027;51.030;13.812;2023-04-01T02:40:04;98430.97;;;10.77;74.77
21730;BME280;11027;51.030;13.812;2023-04-01T02:42:31;98436.81;;;10.81;74.85
21730;BME280;11027;51.030;13.812;2023-04-01T02:44:57;98434.09;;;10.81;74.70
21730;BME280;11027;51.030;13.812;2023-04-01T02:47:22;98434.69;;;10.83;74.62
21730;BME280;11027;51.030;13.812;2023-04-01T02:49:47;98438.47;;;10.82;74.45
21730;BME280;11027;51.030;13.812;2023-04-01T02:52:12;98438.94;;;10.79;74.03
21730;BME280;11027;51.030;13.812;2023-04-01T02:54:38;98431.38;;;10.81;74.05
21730;BME280;11027;51.030;13.812;2023-04-01T02:57:03;98440.59;;;10.80;73.94
21730;BME280;11027;51.030;13.812;2023-04-01T02:59:28;98438.94;;;10.79;74.10
21730;BME280;11027;51.030;13.812;2023-04-01T03:01:53;98438.94;;;10.79;74.04
21730;BME280;11027;51.030;13.812;2023-04-01T03:04:18;98450.25;;;10.76;74.36
21730;BME280;11027;51.030;13.812;2023-04-01T03:06:44;98445.03;;;10.74;74.27
21730;BME280;11027;51.030;13.812;2023-04-01T03:09:09;98444.06;;;10.69;74.47
21730;BME280;11027;51.030;13.812;2023-04-01T03:11:35;98463.34;;;10.67;74.66
21730;BME280;11027;51.030;13.812;2023-04-01T03:14:00;98457.28;;;10.65;74.51
21730;BME280;11027;51.030;13.812;2023-04-01T03:16:26;98451.63;;;10.67;74.39
21730;BME280;11027;51.030;13.812;2023-04-01T03:18:51;98460.81;;;10.66;74.00
21730;BME280;11027;51.030;13.812;2023-04-01T03:21:24;98455.78;;;10.69;74.05
21730;BME280;11027;51.030;13.812;2023-04-01T03:23:50;98449.50;;;10.69;74.31
21730;BME280;11027;51.030;13.812;2023-04-01T03:26:15;98463.72;;;10.71;74.06
21730;BME280;11027;51.030;13.812;2023-04-01T03:28:41;98459.50;;;10.75;73.82
21730;BME280;11027;51.030;13.812;2023-04-01T03:31:06;98464.34;;;10.73;73.95
21730;BME280;11027;51.030;13.812;2023-04-01T03:33:32;98454.50;;;10.72;73.80
21730;BME280;11027;51.030;13.812;2023-04-01T03:35:57;98454.50;;;10.72;73.98
21730;BME280;11027;51.030;13.812;2023-04-01T03:38:23;98457.22;;;10.72;73.67
21730;BME280;11027;51.030;13.812;2023-04-01T03:40:48;98465.38;;;10.72;73.80
21730;BME280;11027;51.030;13.812;2023-04-01T03:43:13;98453.88;;;10.70;73.37
21730;BME280;11027;51.030;13.812;2023-04-01T03:45:46;98464.56;;;10.71;73.75
21730;BME280;11027;51.030;13.812;2023-04-01T03:48:13;98462.03;;;10.70;73.59
21730;BME280;11027;51.030;13.812;2023-04-01T03:50:38;98469.19;;;10.71;73.60
21730;BME280;11027;51.030;13.812;2023-04-01T03:53:04;98467.06;;;10.73;73.68
21730;BME280;11027;51.030;13.812;2023-04-01T03:55:29;98474.16;;;10.74;73.60
21730;BME280;11027;51.030;13.812;2023-04-01T03:57:54;98469.53;;;10.74;73.25
21730;BME280;11027;51.030;13.812;2023-04-01T04:00:20;98470.41;;;10.75;73.39
21730;BME280;11027;51.030;13.812;2023-04-01T04:02:45;98472.06;;;10.76;73.07
21730;BME280;11027;51.030;13.812;2023-04-01T04:05:10;98481.28;;;10.75;73.00
21730;BME280;11027;51.030;13.812;2023-04-01T04:07:36;98482.94;;;10.76;72.92
21730;BME280;11027;51.030;13.812;2023-04-01T04:10:01;98477.50;;;10.76;72.89
21730;BME280;11027;51.030;13.812;2023-04-01T04:12:26;98474.16;;;10.74;72.70
21730;BME280;11027;51.030;13.812;2023-04-01T04:14:51;98478.72;;;10.80;72.71
21730;BME280;11027;51.030;13.812;2023-04-01T04:17:17;98475.38;;;10.78;72.58
21730;BME280;11027;51.030;13.812;2023-04-01T04:19:42;98482.50;;;10.79;72.36
21730;BME280;11027;51.030;13.812;2023-04-01T04:22:08;98482.50;;;10.79;72.29
21730;BME280;11027;51.030;13.812;2023-04-01T04:24:36;98494.22;;;10.79;72.07
21730;BME280;11027;51.030;13.812;2023-04-01T04:27:02;98486.88;;;10.80;72.17
21730;BME280;11027;51.030;13.812;2023-04-01T04:29:27;98495.06;;;10.80;71.86
21730;BME280;11027;51.030;13.812;2023-04-01T04:31:52;98500.91;;;10.84;72.16
21730;BME280;11027;51.030;13.812;2023-04-01T04:34:18;98507.19;;;10.84;71.89
21730;BME280;11027;51.030;13.812;2023-04-01T04:36:43;98498.59;;;10.80;71.70
21730;BME280;11027;51.030;13.812;2023-04-01T04:39:09;98508.47;;;10.81;71.55
21730;BME280;11027;51.030;13.812;2023-04-01T04:41:37;98504.31;;;10.79;71.27
21730;BME280;11027;51.030;13.812;2023-04-01T04:44:03;98502.63;;;10.78;71.62
21730;BME280;11027;51.030;13.812;2023-04-01T04:46:28;98503.44;;;10.78;71.55
21730;BME280;11027;51.030;13.812;2023-04-01T04:48:53;98507.63;;;10.81;71.34
21730;BME280;11027;51.030;13.812;2023-04-01T04:51:19;98505.53;;;10.83;71.44
21730;BME280;11027;51.030;13.812;2023-04-01T04:53:46;98516.41;;;10.83;71.12
21730;BME280;11027;51.030;13.812;2023-04-01T04:56:12;98516.84;;;10.80;71.03
21730;BME280;11027;51.030;13.812;2023-04-01T04:58:39;98514.72;;;10.82;71.12
21730;BME280;11027;51.030;13.812;2023-04-01T05:01:10;98513.91;;;10.81;71.13
21730;BME280;11027;51.030;13.812;2023-04-01T05:03:36;98522.50;;;10.78;70.92
21730;BME280;11027;51.030;13.812;2023-04-01T05:06:01;98517.31;;;10.77;71.04
21730;BME280;11027;51.030;13.812;2023-04-01T05:08:26;98516.84;;;10.80;71.00
21730;BME280;11027;51.030;13.812;2023-04-01T05:10:51;98521.25;;;10.81;70.88
21730;BME280;11027;51.030;13.812;2023-04-01T05:13:17;98519.97;;;10.84;71.07
21730;BME280;11027;51.030;13.812;2023-04-01T05:15:42;98530.19;;;10.88;71.00
21730;BME280;11027;51.030;13.812;2023-04-01T05:18:07;98524.91;;;10.93;71.07
21730;BME280;11027;51.030;13.812;2023-04-01T05:20:33;98530.75;;;10.97;70.75
21730;BME280;11027;51.030;13.812;2023-04-01T05:22:59;98529.47;;;10.99;70.62
21730;BME280;11027;51.030;13.812;2023-04-01T05:25:24;98527.38;;;11.01;70.67
21730;BME280;11027;51.030;13.812;2023-04-01T05:27:50;98533.25;;;10.98;70.69
21730;BME280;11027;51.030;13.812;2023-04-01T05:30:15;98535.22;;;10.91;70.76
21730;BME280;11027;51.030;13.812;2023-04-01T05:32:41;98542.78;;;10.89;71.13
21730;BME280;11027;51.030;13.812;2023-04-01T05:35:06;98532.31;;;10.86;71.14
21730;BME280;11027;51.030;13.812;2023-04-01T05:37:34;98541.09;;;10.88;71.28
21730;BME280;11027;51.030;13.812;2023-04-01T05:39:59;98539.84;;;10.91;71.28
21730;BME280;11027;51.030;13.812;2023-04-01T05:42:25;98551.28;;;10.99;71.20
21730;BME280;11027;51.030;13.812;2023-04-01T05:44:50;98557.75;;;10.98;71.29
21730;BME280;11027;51.030;13.812;2023-04-01T05:47:15;98539.56;;;10.99;71.11
21730;BME280;11027;51.030;13.812;2023-04-01T05:49:40;98544.31;;;11.04;71.19
21730;BME280;11027;51.030;13.812;2023-04-01T05:52:06;98546.44;;;11.01;71.21
21730;BME280;11027;51.030;13.812;2023-04-01T05:54:31;98549.78;;;11.04;71.32
21730;BME280;11027;51.030;13.812;2023-04-01T05:56:56;98544.75;;;11.00;71.31
21730;BME280;11027;51.030;13.812;2023-04-01T05:59:21;98555.66;;;11.00;71.51
21730;BME280;11027;51.030;13.812;2023-04-01T06:01:47;98547.03;;;11.04;71.35
21730;BME280;11027;51.030;13.812;2023-04-01T06:04:17;98555.66;;;11.00;71.33
21730;BME280;11027;51.030;13.812;2023-04-01T06:06:42;98546.88;;;10.98;71.69
21730;BME280;11027;51.030;13.812;2023-04-01T06:09:17;98554.00;;;10.99;71.72
21730;BME280;11027;51.030;13.812;2023-04-01T06:17:34;98550.59;;;11.04;71.76
21730;BME280;11027;51.030;13.812;2023-04-01T06:23:11;98563.53;;;11.09;71.82
21730;BME280;11027;51.030;13.812;2023-04-01T06:26:02;98564.75;;;11.13;71.99
21730;BME280;11027;51.030;13.812;2023-04-01T06:28:48;98562.22;;;11.18;71.96
21730;BME280;11027;51.030;13.812;2023-04-01T06:31:33;98562.63;;;11.21;71.71
21730;BME280;11027;51.030;13.812;2023-04-01T06:45:32;98566.47;;;11.57;69.96
21730;BME280;11027;51.030;13.812;2023-04-01T06:48:24;98576.22;;;11.65;69.87
21730;BME280;11027;51.030;13.812;2023-04-01T06:53:56;98573.94;;;11.62;69.20
21730;BME280;11027;51.030;13.812;2023-04-01T06:56:27;98569.09;;;11.64;68.78
21730;BME280;11027;51.030;13.812;2023-04-01T07:01:41;98568.03;;;11.65;68.01
21730;BME280;11027;51.030;13.812;2023-04-01T07:04:14;98576.81;;;11.67;67.59
21730;BME280;11027;51.030;13.812;2023-04-01T07:06:59;98573.44;;;11.72;67.67
21730;BME280;11027;51.030;13.812;2023-04-01T07:09:37;98575.47;;;11.76;67.32
21730;BME280;11027;51.030;13.812;2023-04-01T07:12:11;98580.94;;;11.76;67.19
21730;BME280;11027;51.030;13.812;2023-04-01T07:14:41;98578.38;;;11.81;67.02
21730;BME280;11027;51.030;13.812;2023-04-01T07:17:36;98583.81;;;11.81;66.43
21730;BME280;11027;51.030;13.812;2023-04-01T07:20:23;98599.13;;;11.82;66.40
21730;BME280;11027;51.030;13.812;2023-04-01T07:22:56;98609.44;;;11.80;66.49
21730;BME280;11027;51.030;13.812;2023-04-01T07:25:27;98587.38;;;11.82;66.14
21730;BME280;11027;51.030;13.812;2023-04-01T07:28:02;98607.31;;;11.82;66.31
21730;BME280;11027;51.030;13.812;2023-04-01T07:30:35;98587.22;;;11.77;66.60
21730;BME280;11027;51.030;13.812;2023-04-01T07:33:15;98597.47;;;11.81;66.50
21730;BME280;11027;51.030;13.812;2023-04-01T07:35:49;98596.56;;;11.88;66.19
21730;BME280;11027;51.030;13.812;2023-04-01T07:41:46;98594.28;;;12.03;65.97
21730;BME280;11027;51.030;13.812;2023-04-01T07:54:49;98605.44;;;12.01;65.23
21730;BME280;11027;51.030;13.812;2023-04-01T07:57:22;98602.03;;;12.06;65.02
21730;BME280;11027;51.030;13.812;2023-04-01T08:00:07;98604.16;;;12.04;64.84
21730;BME280;11027;51.030;13.812;2023-04-01T08:03:03;98617.63;;;11.99;64.65
21730;BME280;11027;51.030;13.812;2023-04-01T08:10:49;98627.63;;;11.87;65.29
21730;BME280;11027;51.030;13.812;2023-04-01T08:13:41;98616.59;;;12.00;65.68
21730;BME280;11027;51.030;13.812;2023-04-01T08:16:20;98618.75;;;12.10;65.56
21730;BME280;11027;51.030;13.812;2023-04-01T08:18:54;98626.19;;;12.21;65.26
21730;BME280;11027;51.030;13.812;2023-04-01T08:21:28;98625.97;;;12.23;65.14
21730;BME280;11027;51.030;13.812;2023-04-01T08:23:57;98622.78;;;12.26;64.91
21730;BME280;11027;51.030;13.812;2023-04-01T08:26:36;98629.00;;;12.33;65.08
21730;BME280;11027;51.030;13.812;2023-04-01T08:29:21;98610.78;;;12.45;65.21
21730;BME280;11027;51.030;13.812;2023-04-01T08:31:58;98629.03;;;12.63;64.17
21730;BME280;11027;51.030;13.812;2023-04-01T08:34:34;98627.38;;;12.74;63.42
21730;BME280;11027;51.030;13.812;2023-04-01T08:37:04;98623.00;;;12.73;62.31
21730;BME280;11027;51.030;13.812;2023-04-01T08:39:34;98636.50;;;12.68;62.26
21730;BME280;11027;51.030;13.812;2023-04-01T08:42:18;98618.19;;;12.56;62.43
21730;BME280;11027;51.030;13.812;2023-04-01T08:47:46;98630.31;;;12.60;62.66
21730;BME280;11027;51.030;13.812;2023-04-01T08:50:40;98629.84;;;12.64;62.54
21730;BME280;11027;51.030;13.812;2023-04-01T08:56:14;98628.19;;;12.63;62.92
21730;BME280;11027;51.030;13.812;2023-04-01T09:02:14;98644.25;;;12.71;62.45
21730;BME280;11027;51.030;13.812;2023-04-01T09:05:07;98640.28;;;12.85;62.53
21730;BME280;11027;51.030;13.812;2023-04-01T09:15:50;98633.28;;;12.89;62.24
21730;BME280;11027;51.030;13.812;2023-04-01T09:18:42;98630.38;;;12.84;62.53
21730;BME280;11027;51.030;13.812;2023-04-01T09:35:23;98656.72;;;12.67;61.87
21730;BME280;11027;51.030;13.812;2023-04-01T09:40:54;98641.31;;;12.84;61.92
21730;BME280;11027;51.030;13.812;2023-04-01T09:43:28;98639.13;;;12.93;61.69
21730;BME280;11027;51.030;13.812;2023-04-01T09:48:45;98635.34;;;13.06;60.93
21730;BME280;11027;51.030;13.812;2023-04-01T09:51:31;98631.31;;;13.20;60.57
21730;BME280;11027;51.030;13.812;2023-04-01T09:54:23;98633.75;;;13.40;60.80
21730;BME280;11027;51.030;13.812;2023-04-01T10:03:01;98630.56;;;13.31;60.25
21730;BME280;11027;51.030;13.812;2023-04-01T10:14:50;98653.03;;;13.03;60.14
21730;BME280;11027;51.030;13.812;2023-04-01T10:18:24;98658.00;;;12.94;60.27
21730;BME280;11027;51.030;13.812;2023-04-01T10:20:54;98659.19;;;12.98;60.57
21730;BME280;11027;51.030;13.812;2023-04-01T10:23:48;98658.75;;;13.01;60.33
21730;BME280;11027;51.030;13.812;2023-04-01T10:26:42;98667.38;;;12.98;60.49
21730;BME280;11027;51.030;13.812;2023-04-01T10:29:38;98652.06;;;12.97;60.62
21730;BME280;11027;51.030;13.812;2023-04-01T10:35:39;98646.31;;;13.17;60.73
21730;BME280;11027;51.030;13.812;2023-04-01T10:38:14;98653.69;;;13.17;60.77
21730;BME280;11027;51.030;13.812;2023-04-01T10:41:10;98645.94;;;13.14;61.32
21730;BME280;11027;51.030;13.812;2023-04-01T11:10:00;98643.50;;;13.95;59.97
21730;BME280;11027;51.030;13.812;2023-04-01T11:24:33;98643.06;;;15.08;57.89
21730;BME280;11027;51.030;13.812;2023-04-01T11:27:30;98644.41;;;15.22;57.37
21730;BME280;11027;51.030;13.812;2023-04-01T11:30:14;98635.09;;;15.23;57.56
21730;BME280;11027;51.030;13.812;2023-04-01T11:32:49;98642.56;;;15.11;57.48
21730;BME280;11027;51.030;13.812;2023-04-01T11:38:26;98649.34;;;14.91;59.20
21730;BME280;11027;51.030;13.812;2023-04-01T11:41:32;98653.81;;;14.80;61.23
21730;BME280;11027;51.030;13.812;2023-04-01T11:44:15;98651.69;;;14.99;60.26
21730;BME280;11027;51.030;13.812;2023-04-01T11:49:44;98647.06;;;14.88;57.90
21730;BME280;11027;51.030;13.812;2023-04-01T12:00:40;98648.22;;;15.38;58.32
21730;BME280;11027;51.030;13.812;2023-04-01T12:08:53;98647.22;;;15.61;57.71
21730;BME280;11027;51.030;13.812;2023-04-01T12:11:37;98646.72;;;15.64;58.10
21730;BME280;11027;51.030;13.812;2023-04-01T12:14:21;98644.41;;;15.90;57.82
21730;BME280;11027;51.030;13.812;2023-04-01T12:17:34;98653.97;;;16.26;57.22
21730;BME280;11027;51.030;13.812;2023-04-01T12:20:26;98650.91;;;16.45;55.81
21730;BME280;11027;51.030;13.812;2023-04-01T12:23:16;98661.81;;;16.62;55.28
21730;BME280;11027;51.030;13.812;2023-04-01T12:28:54;98638.44;;;16.81;53.58
21730;BME280;11027;51.030;13.812;2023-04-01T12:31:31;98646.00;;;16.47;53.86
21730;BME280;11027;51.030;13.812;2023-04-01T12:34:31;98635.75;;;15.98;54.57
21730;BME280;11027;51.030;13.812;2023-04-01T12:45:32;98652.38;;;14.26;62.30
21730;BME280;11027;51.030;13.812;2023-04-01T12:53:33;98660.59;;;14.26;63.59
21730;BME280;11027;51.030;13.812;2023-04-01T12:56:03;98667.53;;;14.28;64.04
21730;BME280;11027;51.030;13.812;2023-04-01T12:58:51;98669.31;;;14.23;63.99
21730;BME280;11027;51.030;13.812;2023-04-01T13:01:28;98674.78;;;14.23;63.86
21730;BME280;11027;51.030;13.812;2023-04-01T13:13:00;98660.78;;;15.34;63.56
21730;BME280;11027;51.030;13.812;2023-04-01T13:15:32;98662.69;;;16.01;62.65
21730;BME280;11027;51.030;13.812;2023-04-01T13:18:11;98658.56;;;17.14;61.71
21730;BME280;11027;51.030;13.812;2023-04-01T13:20:51;98640.38;;;20.27;56.79
21730;BME280;11027;51.030;13.812;2023-04-01T13:23:29;98646.63;;;22.16;52.02
21730;BME280;11027;51.030;13.812;2023-04-01T13:26:13;98647.69;;;21.62;49.13
21730;BME280;11027;51.030;13.812;2023-04-01T13:28:46;98652.72;;;20.55;49.19
21730;BME280;11027;51.030;13.812;2023-04-01T13:34:21;98651.50;;;19.24;51.87
21730;BME280;11027;51.030;13.812;2023-04-01T13:37:09;98658.94;;;19.29;52.57
21730;BME280;11027;51.030;13.812;2023-04-01T13:39:42;98666.34;;;18.92;53.11
21730;BME280;11027;51.030;13.812;2023-04-01T13:42:20;98667.81;;;18.47;53.19
21730;BME280;11027;51.030;13.812;2023-04-01T13:44:52;98660.78;;;18.14;53.51
21730;BME280;11027;51.030;13.812;2023-04-01T13:47:30;98668.44;;;18.07;54.00
21730;BME280;11027;51.030;13.812;2023-04-01T13:50:12;98663.72;;;18.02;53.98
21730;BME280;11027;51.030;13.812;2023-04-01T13:53:04;98658.66;;;17.84;53.91
21730;BME280;11027;51.030;13.812;2023-04-01T13:58:26;98661.66;;;17.50;54.39
21730;BME280;11027;51.030;13.812;2023-04-01T14:01:15;98669.69;;;17.24;53.92
21730;BME280;11027;51.030;13.812;2023-04-01T14:04:08;98676.50;;;16.72;51.47
21730;BME280;11027;51.030;13.812;2023-04-01T14:12:42;98678.09;;;16.85;48.42
21730;BME280;11027;51.030;13.812;2023-04-01T14:18:39;98679.09;;;15.96;50.39
21730;BME280;11027;51.030;13.812;2023-04-01T14:21:17;98679.50;;;15.54;51.67
21730;BME280;11027;51.030;13.812;2023-04-01T14:24:09;98681.31;;;15.31;52.79
21730;BME280;11027;51.030;13.812;2023-04-01T14:27:01;98686.22;;;15.00;55.01
21730;BME280;11027;51.030;13.812;2023-04-01T14:30:03;98692.63;;;14.89;56.11
21730;BME280;11027;51.030;13.812;2023-04-01T14:38:39;98691.16;;;15.95;56.67
21730;BME280;11027;51.030;13.812;2023-04-01T14:44:11;98682.69;;;19.19;51.24
21730;BME280;11027;51.030;13.812;2023-04-01T14:47:08;98690.16;;;19.34;49.34
21730;BME280;11027;51.030;13.812;2023-04-01T14:49:42;98687.38;;;19.09;49.15
21730;BME280;11027;51.030;13.812;2023-04-01T14:54:48;98698.47;;;18.08;49.94
21730;BME280;11027;51.030;13.812;2023-04-01T14:57:23;98704.19;;;17.69;50.81
21730;BME280;11027;51.030;13.812;2023-04-01T14:59:59;98701.56;;;17.20;51.17
21730;BME280;11027;51.030;13.812;2023-04-01T15:02:42;98703.28;;;16.99;51.85
21730;BME280;11027;51.030;13.812;2023-04-01T15:05:15;98714.16;;;17.16;51.53
21730;BME280;11027;51.030;13.812;2023-04-01T15:07:54;98710.91;;;17.19;51.13
21730;BME280;11027;51.030;13.812;2023-04-01T15:13:30;98728.97;;;17.10;48.00
21730;BME280;11027;51.030;13.812;2023-04-01T15:16:25;98732.41;;;16.78;46.81
21730;BME280;11027;51.030;13.812;2023-04-01T15:19:17;98728.19;;;16.48;47.24
21730;BME280;11027;51.030;13.812;2023-04-01T15:22:12;98735.88;;;16.46;48.06
21730;BME280;11027;51.030;13.812;2023-04-01T15:27:51;98747.13;;;15.60;50.33
21730;BME280;11027;51.030;13.812;2023-04-01T15:33:13;98741.19;;;15.34;51.84
21730;BME280;11027;51.030;13.812;2023-04-01T15:36:14;98747.66;;;15.28;52.01
21730;BME280;11027;51.030;13.812;2023-04-01T15:41:22;98761.84;;;14.96;53.41
21730;BME280;11027;51.030;13.812;2023-04-01T15:43:50;98753.78;;;14.78;54.24
21730;BME280;11027;51.030;13.812;2023-04-01T15:46:23;98757.41;;;14.67;54.83
21730;BME280;11027;51.030;13.812;2023-04-01T15:54:27;98773.72;;;14.62;55.80
21730;BME280;11027;51.030;13.812;2023-04-01T15:59:53;98766.94;;;14.52;56.46
21730;BME280;11027;51.030;13.812;2023-04-01T16:02:43;98770.88;;;14.45;56.33
21730;BME280;11027;51.030;13.812;2023-04-01T16:05:37;98770.28;;;14.31;57.04
21730;BME280;11027;51.030;13.812;2023-04-01T16:11:09;98776.56;;;14.08;57.46
21730;BME280;11027;51.030;13.812;2023-04-01T16:13:56;98778.13;;;14.15;57.27
21730;BME280;11027;51.030;13.812;2023-04-01T16:16:49;98775.38;;;14.04;57.22
21730;BME280;11027;51.030;13.812;2023-04-01T16:19:33;98779.78;;;13.93;57.76
21730;BME280;11027;51.030;13.812;2023-04-01T16:22:27;98783.97;;;13.84;58.41
21730;BME280;11027;51.030;13.812;2023-04-01T16:25:17;98792.63;;;13.80;58.12
21730;BME280;11027;51.030;13.812;2023-04-01T16:27:51;98793.09;;;13.77;58.33
21730;BME280;11027;51.030;13.812;2023-04-01T16:30:24;98788.56;;;13.71;58.71
21730;BME280;11027;51.030;13.812;2023-04-01T16:35:59;98807.88;;;13.46;58.87
21730;BME280;11027;51.030;13.812;2023-04-01T16:38:34;98805.53;;;13.50;58.69
21730;BME280;11027;51.030;13.812;2023-04-01T16:43:58;98822.63;;;13.45;59.44
21730;BME280;11027;51.030;13.812;2023-04-01T16:59:27;98841.88;;;13.20;60.83
21730;BME280;11027;51.030;13.812;2023-04-01T17:02:10;98845.69;;;13.19;60.86
21730;BME280;11027;51.030;13.812;2023-04-01T17:04:47;98852.09;;;13.25;61.02
21730;BME280;11027;51.030;13.812;2023-04-01T17:07:41;98855.09;;;13.23;61.29
21730;BME280;11027;51.030;13.812;2023-04-01T17:10:30;98861.78;;;13.27;61.45
21730;BME280;11027;51.030;13.812;2023-04-01T17:20:35;98868.16;;;13.21;62.46
21730;BME280;11027;51.030;13.812;2023-04-01T17:26:20;98879.69;;;13.23;62.61
21730;BME280;11027;51.030;13.812;2023-04-01T17:28:52;98876.97;;;13.23;63.18
21730;BME280;11027;51.030;13.812;2023-04-01T17:34:05;98881.34;;;13.24;63.91
21730;BME280;11027;51.030;13.812;2023-04-01T17:39:44;98892.78;;;13.21;65.27
21730;BME280;11027;51.030;13.812;2023-04-01T17:42:54;98899.16;;;13.15;66.13
21730;BME280;11027;51.030;13.812;2023-04-01T17:45:26;98905.06;;;13.12;66.93
21730;BME280;11027;51.030;13.812;2023-04-01T17:51:04;98904.53;;;13.03;67.96
21730;BME280;11027;51.030;13.812;2023-04-01T17:56:28;98909.84;;;12.98;68.83
21730;BME280;11027;51.030;13.812;2023-04-01T18:04:34;98910.13;;;12.90;70.75
21730;BME280;11027;51.030;13.812;2023-04-01T18:07:24;98914.16;;;12.87;71.45
21730;BME280;11027;51.030;13.812;2023-04-01T18:18:25;98918.53;;;12.70;73.24
21730;BME280;11027;51.030;13.812;2023-04-01T18:21:12;98924.00;;;12.70;73.29
21730;BME280;11027;51.030;13.812;2023-04-01T18:24:10;98928.84;;;12.68;73.77
21730;BME280;11027;51.030;13.812;2023-04-01T18:26:39;98924.47;;;12.67;74.07
21730;BME280;11027;51.030;13.812;2023-04-01T18:32:00;98935.81;;;12.64;74.56
21730;BME280;11027;51.030;13.812;2023-04-01T18:37:26;98941.75;;;12.60;75.47